sensor_id;sensor_type;location;lat;lon;timestamp;P1;durP1;ratioP1;P2;durP2;ratioP2
31798;SDS011;18374;51.136;3.502;2022-12-10T00:01:49;92.28;;;30.77;;
31798;SDS011;18374;51.136;3.502;2022-12-10T00:04:19;88.53;;;32.35;;
31798;SDS011;18374;51.136;3.502;2022-12-10T00:06:48;81.55;;;30.80;;
31798;SDS011;18374;51.136;3.502;2022-12-10T00:09:17;90.90;;;32.35;;
31798;SDS011;18374;51.136;3.502;2022-12-10T00:11:47;104.50;;;34.10;;
31798;SDS011;18374;51.136;3.502;2022-12-10T00:14:15;113.13;;;32.83;;
31798;SDS011;18374;51.136;3.502;2022-12-10T00:16:43;96.18;;;35.75;;
31798;SDS011;18374;51.136;3.502;2022-12-10T00:19:11;96.55;;;31.77;;
31798;SDS011;18374;51.136;3.502;2022-12-10T00:21:39;80.15;;;29.92;;
31798;SDS011;18374;51.136;3.502;2022-12-10T00:24:08;119.40;;;32.55;;
31798;SDS011;18374;51.136;3.502;2022-12-10T00:26:37;128.45;;;32.35;;
31798;SDS011;18374;51.136;3.502;2022-12-10T00:29:07;86.18;;;31.23;;
31798;SDS011;18374;51.136;3.502;2022-12-10T00:31:38;88.53;;;30.58;;
31798;SDS011;18374;51.136;3.502;2022-12-10T00:34:07;76.32;;;29.05;;
31798;SDS011;18374;51.136;3.502;2022-12-10T00:36:46;85.32;;;30.35;;
31798;SDS011;18374;51.136;3.502;2022-12-10T00:39:17;108.47;;;33.05;;
31798;SDS011;18374;51.136;3.502;2022-12-10T00:41:47;86.47;;;30.88;;
31798;SDS011;18374;51.136;3.502;2022-12-10T00:44:15;110.40;;;30.30;;
31798;SDS011;18374;51.136;3.502;2022-12-10T00:46:43;72.80;;;28.08;;
31798;SDS011;18374;51.136;3.502;2022-12-10T00:49:11;149.35;;;31.75;;
31798;SDS011;18374;51.136;3.502;2022-12-10T00:51:40;85.95;;;30.33;;
31798;SDS011;18374;51.136;3.502;2022-12-10T00:54:10;112.65;;;31.80;;
31798;SDS011;18374;51.136;3.502;2022-12-10T00:56:38;72.25;;;28.63;;
31798;SDS011;18374;51.136;3.502;2022-12-10T00:59:06;80.72;;;29.45;;
31798;SDS011;18374;51.136;3.502;2022-12-10T01:01:35;73.88;;;28.27;;
31798;SDS011;18374;51.136;3.502;2022-12-10T01:04:07;81.07;;;28.30;;
31798;SDS011;18374;51.136;3.502;2022-12-10T01:06:43;162.15;;;32.10;;
31798;SDS011;18374;51.136;3.502;2022-12-10T01:09:20;79.47;;;29.30;;
31798;SDS011;18374;51.136;3.502;2022-12-10T01:11:53;103.57;;;30.75;;
31798;SDS011;18374;51.136;3.502;2022-12-10T01:14:27;95.03;;;29.45;;
31798;SDS011;18374;51.136;3.502;2022-12-10T01:17:00;130.93;;;30.90;;
31798;SDS011;18374;51.136;3.502;2022-12-10T01:19:31;92.03;;;28.48;;
31798;SDS011;18374;51.136;3.502;2022-12-10T01:22:01;76.72;;;28.35;;
31798;SDS011;18374;51.136;3.502;2022-12-10T01:24:30;71.35;;;28.40;;
31798;SDS011;18374;51.136;3.502;2022-12-10T01:26:58;67.85;;;27.98;;
31798;SDS011;18374;51.136;3.502;2022-12-10T01:29:27;116.60;;;30.95;;
31798;SDS011;18374;51.136;3.502;2022-12-10T01:31:55;111.60;;;28.70;;
31798;SDS011;18374;51.136;3.502;2022-12-10T01:34:25;78.88;;;29.35;;
31798;SDS011;18374;51.136;3.502;2022-12-10T01:36:56;88.75;;;30.10;;
31798;SDS011;18374;51.136;3.502;2022-12-10T01:39:23;76.00;;;28.90;;
31798;SDS011;18374;51.136;3.502;2022-12-10T01:41:53;84.60;;;26.90;;
31798;SDS011;18374;51.136;3.502;2022-12-10T01:46:52;60.05;;;24.83;;
31798;SDS011;18374;51.136;3.502;2022-12-10T01:49:31;62.25;;;24.70;;
31798;SDS011;18374;51.136;3.502;2022-12-10T01:52:02;65.05;;;23.70;;
31798;SDS011;18374;51.136;3.502;2022-12-10T01:54:37;46.92;;;22.05;;
31798;SDS011;18374;51.136;3.502;2022-12-10T01:57:44;52.13;;;23.08;;
31798;SDS011;18374;51.136;3.502;2022-12-10T02:00:04;53.28;;;22.98;;
31798;SDS011;18374;51.136;3.502;2022-12-10T02:02:49;83.80;;;22.52;;
31798;SDS011;18374;51.136;3.502;2022-12-10T02:05:36;45.20;;;22.08;;
31798;SDS011;18374;51.136;3.502;2022-12-10T02:13:56;49.13;;;22.50;;
31798;SDS011;18374;51.136;3.502;2022-12-10T02:16:33;143.30;;;23.92;;
31798;SDS011;18374;51.136;3.502;2022-12-10T02:19:12;42.85;;;20.35;;
31798;SDS011;18374;51.136;3.502;2022-12-10T02:21:48;48.53;;;21.08;;
31798;SDS011;18374;51.136;3.502;2022-12-10T02:24:28;57.25;;;20.33;;
31798;SDS011;18374;51.136;3.502;2022-12-10T02:29:55;43.37;;;19.27;;
31798;SDS011;18374;51.136;3.502;2022-12-10T02:32:26;46.15;;;20.77;;
31798;SDS011;18374;51.136;3.502;2022-12-10T02:35:03;85.13;;;21.88;;
31798;SDS011;18374;51.136;3.502;2022-12-10T02:37:42;61.55;;;21.17;;
31798;SDS011;18374;51.136;3.502;2022-12-10T02:40:23;46.80;;;20.50;;
31798;SDS011;18374;51.136;3.502;2022-12-10T02:42:58;68.95;;;21.45;;
31798;SDS011;18374;51.136;3.502;2022-12-10T02:45:27;43.95;;;21.08;;
31798;SDS011;18374;51.136;3.502;2022-12-10T02:47:58;51.05;;;19.92;;
31798;SDS011;18374;51.136;3.502;2022-12-10T02:50:35;44.10;;;19.13;;
31798;SDS011;18374;51.136;3.502;2022-12-10T02:53:03;39.85;;;19.20;;
31798;SDS011;18374;51.136;3.502;2022-12-10T02:55:35;41.05;;;18.73;;
31798;SDS011;18374;51.136;3.502;2022-12-10T03:01:52;38.95;;;18.80;;
31798;SDS011;18374;51.136;3.502;2022-12-10T03:07:25;40.42;;;19.38;;
31798;SDS011;18374;51.136;3.502;2022-12-10T03:10:03;72.75;;;21.67;;
31798;SDS011;18374;51.136;3.502;2022-12-10T03:13:00;51.90;;;19.67;;
31798;SDS011;18374;51.136;3.502;2022-12-10T03:15:34;49.40;;;20.77;;
31798;SDS011;18374;51.136;3.502;2022-12-10T03:18:06;51.55;;;19.63;;
31798;SDS011;18374;51.136;3.502;2022-12-10T03:20:40;51.40;;;19.73;;
31798;SDS011;18374;51.136;3.502;2022-12-10T03:23:13;57.00;;;20.25;;
31798;SDS011;18374;51.136;3.502;2022-12-10T03:25:43;41.30;;;18.27;;
31798;SDS011;18374;51.136;3.502;2022-12-10T03:28:15;55.75;;;19.75;;
31798;SDS011;18374;51.136;3.502;2022-12-10T03:30:47;61.08;;;20.73;;
31798;SDS011;18374;51.136;3.502;2022-12-10T03:33:17;41.03;;;18.02;;
31798;SDS011;18374;51.136;3.502;2022-12-10T03:35:45;53.67;;;20.02;;
31798;SDS011;18374;51.136;3.502;2022-12-10T03:38:13;51.95;;;19.65;;
31798;SDS011;18374;51.136;3.502;2022-12-10T03:40:41;90.32;;;20.42;;
31798;SDS011;18374;51.136;3.502;2022-12-10T03:43:11;39.53;;;18.52;;
31798;SDS011;18374;51.136;3.502;2022-12-10T03:45:40;47.67;;;18.50;;
31798;SDS011;18374;51.136;3.502;2022-12-10T03:48:08;64.32;;;20.55;;
31798;SDS011;18374;51.136;3.502;2022-12-10T03:50:36;68.00;;;20.30;;
31798;SDS011;18374;51.136;3.502;2022-12-10T03:53:04;64.00;;;19.98;;
31798;SDS011;18374;51.136;3.502;2022-12-10T03:55:32;82.43;;;20.95;;
31798;SDS011;18374;51.136;3.502;2022-12-10T03:58:00;94.70;;;21.23;;
31798;SDS011;18374;51.136;3.502;2022-12-10T04:00:27;53.17;;;19.98;;
31798;SDS011;18374;51.136;3.502;2022-12-10T04:02:55;69.75;;;19.60;;
31798;SDS011;18374;51.136;3.502;2022-12-10T04:05:23;98.50;;;20.88;;
31798;SDS011;18374;51.136;3.502;2022-12-10T04:07:51;56.38;;;21.52;;
31798;SDS011;18374;51.136;3.502;2022-12-10T04:10:18;50.17;;;20.55;;
31798;SDS011;18374;51.136;3.502;2022-12-10T04:12:47;65.95;;;21.45;;
31798;SDS011;18374;51.136;3.502;2022-12-10T04:15:37;82.55;;;20.88;;
31798;SDS011;18374;51.136;3.502;2022-12-10T04:18:24;44.45;;;20.10;;
31798;SDS011;18374;51.136;3.502;2022-12-10T04:20:52;65.82;;;21.00;;
31798;SDS011;18374;51.136;3.502;2022-12-10T04:23:38;61.38;;;21.30;;
31798;SDS011;18374;51.136;3.502;2022-12-10T04:26:24;62.35;;;21.17;;
31798;SDS011;18374;51.136;3.502;2022-12-10T04:29:11;104.78;;;21.25;;
31798;SDS011;18374;51.136;3.502;2022-12-10T04:31:39;139.00;;;21.77;;
31798;SDS011;18374;51.136;3.502;2022-12-10T04:34:07;151.10;;;22.40;;
31798;SDS011;18374;51.136;3.502;2022-12-10T04:36:35;138.68;;;22.35;;
31798;SDS011;18374;51.136;3.502;2022-12-10T04:39:03;113.38;;;22.30;;
31798;SDS011;18374;51.136;3.502;2022-12-10T04:41:31;112.00;;;22.33;;
31798;SDS011;18374;51.136;3.502;2022-12-10T04:43:59;71.90;;;21.45;;
31798;SDS011;18374;51.136;3.502;2022-12-10T04:46:27;48.50;;;20.88;;
31798;SDS011;18374;51.136;3.502;2022-12-10T04:48:55;94.53;;;21.00;;
31798;SDS011;18374;51.136;3.502;2022-12-10T04:51:23;101.38;;;23.40;;
31798;SDS011;18374;51.136;3.502;2022-12-10T04:53:51;100.18;;;21.98;;
31798;SDS011;18374;51.136;3.502;2022-12-10T04:56:19;99.75;;;24.10;;
31798;SDS011;18374;51.136;3.502;2022-12-10T04:58:47;102.50;;;22.80;;
31798;SDS011;18374;51.136;3.502;2022-12-10T05:01:14;82.15;;;23.15;;
31798;SDS011;18374;51.136;3.502;2022-12-10T05:03:43;62.90;;;20.98;;
31798;SDS011;18374;51.136;3.502;2022-12-10T05:06:12;65.00;;;21.23;;
31798;SDS011;18374;51.136;3.502;2022-12-10T05:08:42;81.97;;;20.95;;
31798;SDS011;18374;51.136;3.502;2022-12-10T05:11:11;64.03;;;22.98;;
31798;SDS011;18374;51.136;3.502;2022-12-10T05:13:43;63.92;;;21.35;;
31798;SDS011;18374;51.136;3.502;2022-12-10T05:16:12;49.35;;;20.38;;
31798;SDS011;18374;51.136;3.502;2022-12-10T05:18:42;52.35;;;20.65;;
31798;SDS011;18374;51.136;3.502;2022-12-10T05:21:11;51.63;;;20.20;;
31798;SDS011;18374;51.136;3.502;2022-12-10T05:23:43;61.83;;;20.77;;
31798;SDS011;18374;51.136;3.502;2022-12-10T05:28:46;158.95;;;24.08;;
31798;SDS011;18374;51.136;3.502;2022-12-10T05:31:23;64.97;;;21.00;;
31798;SDS011;18374;51.136;3.502;2022-12-10T05:33:54;81.80;;;21.17;;
31798;SDS011;18374;51.136;3.502;2022-12-10T05:36:25;90.32;;;22.67;;
31798;SDS011;18374;51.136;3.502;2022-12-10T05:38:56;105.68;;;22.60;;
31798;SDS011;18374;51.136;3.502;2022-12-10T05:41:26;64.53;;;22.05;;
31798;SDS011;18374;51.136;3.502;2022-12-10T05:43:57;59.58;;;21.60;;
31798;SDS011;18374;51.136;3.502;2022-12-10T05:46:27;79.75;;;23.17;;
31798;SDS011;18374;51.136;3.502;2022-12-10T05:48:58;54.63;;;21.63;;
31798;SDS011;18374;51.136;3.502;2022-12-10T05:51:28;91.03;;;23.83;;
31798;SDS011;18374;51.136;3.502;2022-12-10T05:53:59;89.20;;;23.08;;
31798;SDS011;18374;51.136;3.502;2022-12-10T05:56:30;49.05;;;19.60;;
31798;SDS011;18374;51.136;3.502;2022-12-10T05:58:59;98.60;;;20.35;;
31798;SDS011;18374;51.136;3.502;2022-12-10T06:01:30;55.83;;;19.33;;
31798;SDS011;18374;51.136;3.502;2022-12-10T06:04:00;70.63;;;20.67;;
31798;SDS011;18374;51.136;3.502;2022-12-10T06:06:32;67.38;;;21.48;;
31798;SDS011;18374;51.136;3.502;2022-12-10T06:09:03;48.13;;;19.25;;
31798;SDS011;18374;51.136;3.502;2022-12-10T06:11:32;89.38;;;22.92;;
31798;SDS011;18374;51.136;3.502;2022-12-10T06:14:01;56.25;;;20.38;;
31798;SDS011;18374;51.136;3.502;2022-12-10T06:16:29;64.20;;;21.13;;
31798;SDS011;18374;51.136;3.502;2022-12-10T06:18:57;86.45;;;22.67;;
31798;SDS011;18374;51.136;3.502;2022-12-10T06:21:25;89.30;;;21.40;;
31798;SDS011;18374;51.136;3.502;2022-12-10T06:23:53;72.63;;;20.95;;
31798;SDS011;18374;51.136;3.502;2022-12-10T06:26:22;82.72;;;22.00;;
31798;SDS011;18374;51.136;3.502;2022-12-10T06:28:52;74.93;;;21.13;;
31798;SDS011;18374;51.136;3.502;2022-12-10T06:31:20;44.95;;;20.48;;
31798;SDS011;18374;51.136;3.502;2022-12-10T06:33:50;47.13;;;19.27;;
31798;SDS011;18374;51.136;3.502;2022-12-10T06:36:18;78.18;;;20.98;;
31798;SDS011;18374;51.136;3.502;2022-12-10T06:38:46;42.47;;;19.50;;
31798;SDS011;18374;51.136;3.502;2022-12-10T06:41:15;66.18;;;21.50;;
31798;SDS011;18374;51.136;3.502;2022-12-10T06:43:44;46.28;;;20.13;;
31798;SDS011;18374;51.136;3.502;2022-12-10T06:46:13;70.38;;;22.05;;
31798;SDS011;18374;51.136;3.502;2022-12-10T06:48:44;79.43;;;22.63;;
31798;SDS011;18374;51.136;3.502;2022-12-10T06:51:13;94.45;;;22.85;;
31798;SDS011;18374;51.136;3.502;2022-12-10T06:53:41;76.63;;;22.27;;
31798;SDS011;18374;51.136;3.502;2022-12-10T06:56:13;57.72;;;22.20;;
31798;SDS011;18374;51.136;3.502;2022-12-10T07:01:20;60.00;;;21.73;;
31798;SDS011;18374;51.136;3.502;2022-12-10T07:03:54;53.92;;;21.05;;
31798;SDS011;18374;51.136;3.502;2022-12-10T07:06:23;63.65;;;23.33;;
31798;SDS011;18374;51.136;3.502;2022-12-10T07:08:52;73.80;;;22.55;;
31798;SDS011;18374;51.136;3.502;2022-12-10T07:11:21;72.03;;;23.42;;
31798;SDS011;18374;51.136;3.502;2022-12-10T07:13:51;63.25;;;23.67;;
31798;SDS011;18374;51.136;3.502;2022-12-10T07:16:20;65.20;;;24.60;;
31798;SDS011;18374;51.136;3.502;2022-12-10T07:18:57;87.75;;;24.80;;
31798;SDS011;18374;51.136;3.502;2022-12-10T07:21:28;94.45;;;25.17;;
31798;SDS011;18374;51.136;3.502;2022-12-10T07:24:01;77.10;;;22.77;;
31798;SDS011;18374;51.136;3.502;2022-12-10T07:26:34;94.70;;;26.80;;
31798;SDS011;18374;51.136;3.502;2022-12-10T07:29:04;81.10;;;25.30;;
31798;SDS011;18374;51.136;3.502;2022-12-10T07:31:33;78.88;;;26.35;;
31798;SDS011;18374;51.136;3.502;2022-12-10T07:34:01;67.75;;;24.88;;
31798;SDS011;18374;51.136;3.502;2022-12-10T07:36:29;95.65;;;26.83;;
31798;SDS011;18374;51.136;3.502;2022-12-10T07:38:57;79.38;;;24.73;;
31798;SDS011;18374;51.136;3.502;2022-12-10T07:41:25;83.57;;;26.48;;
31798;SDS011;18374;51.136;3.502;2022-12-10T07:43:53;79.47;;;25.33;;
31798;SDS011;18374;51.136;3.502;2022-12-10T07:46:21;84.05;;;25.92;;
31798;SDS011;18374;51.136;3.502;2022-12-10T07:48:53;140.80;;;28.48;;
31798;SDS011;18374;51.136;3.502;2022-12-10T07:51:21;111.10;;;27.73;;
31798;SDS011;18374;51.136;3.502;2022-12-10T07:53:53;112.60;;;28.40;;
31798;SDS011;18374;51.136;3.502;2022-12-10T07:56:22;98.85;;;26.23;;
31798;SDS011;18374;51.136;3.502;2022-12-10T07:58:51;83.55;;;26.15;;
31798;SDS011;18374;51.136;3.502;2022-12-10T08:01:22;102.78;;;29.08;;
31798;SDS011;18374;51.136;3.502;2022-12-10T08:03:52;94.57;;;28.10;;
31798;SDS011;18374;51.136;3.502;2022-12-10T08:06:24;96.97;;;29.25;;
31798;SDS011;18374;51.136;3.502;2022-12-10T08:08:54;95.95;;;29.25;;
31798;SDS011;18374;51.136;3.502;2022-12-10T08:11:24;104.38;;;27.52;;
31798;SDS011;18374;51.136;3.502;2022-12-10T08:13:53;96.47;;;27.58;;
31798;SDS011;18374;51.136;3.502;2022-12-10T08:16:24;103.97;;;29.98;;
31798;SDS011;18374;51.136;3.502;2022-12-10T08:18:55;93.00;;;30.67;;
31798;SDS011;18374;51.136;3.502;2022-12-10T08:21:26;117.70;;;31.60;;
31798;SDS011;18374;51.136;3.502;2022-12-10T08:23:56;109.45;;;29.90;;
31798;SDS011;18374;51.136;3.502;2022-12-10T08:26:25;94.05;;;30.05;;
31798;SDS011;18374;51.136;3.502;2022-12-10T08:28:57;103.60;;;30.30;;
31798;SDS011;18374;51.136;3.502;2022-12-10T08:31:26;106.75;;;30.70;;
31798;SDS011;18374;51.136;3.502;2022-12-10T08:34:03;89.03;;;30.40;;
31798;SDS011;18374;51.136;3.502;2022-12-10T08:36:31;101.32;;;32.03;;
31798;SDS011;18374;51.136;3.502;2022-12-10T08:38:59;90.18;;;31.63;;
31798;SDS011;18374;51.136;3.502;2022-12-10T08:41:27;117.90;;;33.53;;
31798;SDS011;18374;51.136;3.502;2022-12-10T08:43:54;101.05;;;32.22;;
31798;SDS011;18374;51.136;3.502;2022-12-10T08:46:22;122.32;;;34.20;;
31798;SDS011;18374;51.136;3.502;2022-12-10T08:48:51;128.77;;;33.28;;
31798;SDS011;18374;51.136;3.502;2022-12-10T08:51:19;102.00;;;33.20;;
31798;SDS011;18374;51.136;3.502;2022-12-10T08:53:48;93.93;;;31.23;;
31798;SDS011;18374;51.136;3.502;2022-12-10T08:56:15;104.95;;;31.67;;
31798;SDS011;18374;51.136;3.502;2022-12-10T08:58:43;101.25;;;32.28;;
31798;SDS011;18374;51.136;3.502;2022-12-10T09:01:15;104.57;;;30.25;;
31798;SDS011;18374;51.136;3.502;2022-12-10T09:03:44;91.75;;;29.48;;
31798;SDS011;18374;51.136;3.502;2022-12-10T09:06:13;103.05;;;30.05;;
31798;SDS011;18374;51.136;3.502;2022-12-10T09:08:44;90.70;;;29.33;;
31798;SDS011;18374;51.136;3.502;2022-12-10T09:11:22;90.00;;;28.90;;
31798;SDS011;18374;51.136;3.502;2022-12-10T09:13:56;85.38;;;28.30;;
31798;SDS011;18374;51.136;3.502;2022-12-10T09:16:28;80.68;;;25.60;;
31798;SDS011;18374;51.136;3.502;2022-12-10T09:19:02;85.68;;;29.23;;
31798;SDS011;18374;51.136;3.502;2022-12-10T09:21:31;90.70;;;28.13;;
31798;SDS011;18374;51.136;3.502;2022-12-10T09:23:59;88.57;;;28.52;;
31798;SDS011;18374;51.136;3.502;2022-12-10T09:26:27;90.40;;;28.38;;
31798;SDS011;18374;51.136;3.502;2022-12-10T09:28:55;89.45;;;28.83;;
31798;SDS011;18374;51.136;3.502;2022-12-10T09:31:25;96.53;;;28.65;;
31798;SDS011;18374;51.136;3.502;2022-12-10T09:33:56;84.95;;;27.98;;
31798;SDS011;18374;51.136;3.502;2022-12-10T09:36:24;99.72;;;28.85;;
31798;SDS011;18374;51.136;3.502;2022-12-10T09:38:59;96.07;;;29.27;;
31798;SDS011;18374;51.136;3.502;2022-12-10T09:48:25;87.68;;;26.25;;
31798;SDS011;18374;51.136;3.502;2022-12-10T09:53:39;77.53;;;24.55;;
31798;SDS011;18374;51.136;3.502;2022-12-10T09:56:14;94.97;;;26.80;;
31798;SDS011;18374;51.136;3.502;2022-12-10T09:58:49;77.03;;;25.00;;
31798;SDS011;18374;51.136;3.502;2022-12-10T10:01:18;83.72;;;26.00;;
31798;SDS011;18374;51.136;3.502;2022-12-10T10:03:51;90.05;;;25.83;;
31798;SDS011;18374;51.136;3.502;2022-12-10T10:06:20;90.25;;;25.80;;
31798;SDS011;18374;51.136;3.502;2022-12-10T10:08:51;81.68;;;25.85;;
31798;SDS011;18374;51.136;3.502;2022-12-10T10:11:24;89.43;;;26.45;;
31798;SDS011;18374;51.136;3.502;2022-12-10T10:14:10;79.83;;;25.03;;
31798;SDS011;18374;51.136;3.502;2022-12-10T10:19:29;82.63;;;25.83;;
31798;SDS011;18374;51.136;3.502;2022-12-10T10:22:02;76.05;;;24.88;;
31798;SDS011;18374;51.136;3.502;2022-12-10T10:24:33;76.32;;;24.80;;
31798;SDS011;18374;51.136;3.502;2022-12-10T10:29:47;72.78;;;24.05;;
31798;SDS011;18374;51.136;3.502;2022-12-10T10:32:25;70.47;;;23.88;;
31798;SDS011;18374;51.136;3.502;2022-12-10T10:35:03;77.05;;;23.75;;
31798;SDS011;18374;51.136;3.502;2022-12-10T10:40:02;73.63;;;24.45;;
31798;SDS011;18374;51.136;3.502;2022-12-10T10:42:35;80.57;;;24.70;;
31798;SDS011;18374;51.136;3.502;2022-12-10T10:45:29;71.38;;;25.13;;
31798;SDS011;18374;51.136;3.502;2022-12-10T10:50:44;74.35;;;23.33;;
31798;SDS011;18374;51.136;3.502;2022-12-10T10:53:26;59.20;;;22.75;;
31798;SDS011;18374;51.136;3.502;2022-12-10T10:56:07;65.57;;;23.20;;
31798;SDS011;18374;51.136;3.502;2022-12-10T11:01:52;59.58;;;21.52;;
31798;SDS011;18374;51.136;3.502;2022-12-10T11:04:48;56.17;;;21.02;;
31798;SDS011;18374;51.136;3.502;2022-12-10T11:07:27;55.13;;;21.23;;
31798;SDS011;18374;51.136;3.502;2022-12-10T11:10:21;52.63;;;20.10;;
31798;SDS011;18374;51.136;3.502;2022-12-10T11:12:55;56.80;;;20.95;;
31798;SDS011;18374;51.136;3.502;2022-12-10T11:15:58;58.28;;;21.33;;
31798;SDS011;18374;51.136;3.502;2022-12-10T11:18:51;48.80;;;20.85;;
31798;SDS011;18374;51.136;3.502;2022-12-10T11:21:29;57.38;;;21.58;;
31798;SDS011;18374;51.136;3.502;2022-12-10T11:24:00;66.43;;;24.92;;
31798;SDS011;18374;51.136;3.502;2022-12-10T11:26:43;55.72;;;22.20;;
31798;SDS011;18374;51.136;3.502;2022-12-10T11:29:48;64.13;;;23.80;;
31798;SDS011;18374;51.136;3.502;2022-12-10T11:51:40;60.30;;;24.83;;
31798;SDS011;18374;51.136;3.502;2022-12-10T11:54:18;50.13;;;20.60;;
31798;SDS011;18374;51.136;3.502;2022-12-10T11:57:14;63.25;;;26.75;;
31798;SDS011;18374;51.136;3.502;2022-12-10T12:00:41;53.05;;;21.83;;
31798;SDS011;18374;51.136;3.502;2022-12-10T12:03:15;55.72;;;24.15;;
31798;SDS011;18374;51.136;3.502;2022-12-10T12:09:33;61.70;;;24.00;;
31798;SDS011;18374;51.136;3.502;2022-12-10T12:12:29;60.30;;;22.65;;
31798;SDS011;18374;51.136;3.502;2022-12-10T12:18:24;63.33;;;25.55;;
31798;SDS011;18374;51.136;3.502;2022-12-10T12:21:20;57.40;;;22.08;;
31798;SDS011;18374;51.136;3.502;2022-12-10T12:26:43;57.78;;;25.92;;
31798;SDS011;18374;51.136;3.502;2022-12-10T12:29:47;54.58;;;22.52;;
31798;SDS011;18374;51.136;3.502;2022-12-10T12:32:58;58.85;;;23.55;;
31798;SDS011;18374;51.136;3.502;2022-12-10T12:35:41;57.35;;;23.42;;
31798;SDS011;18374;51.136;3.502;2022-12-10T12:47:45;58.33;;;25.50;;
31798;SDS011;18374;51.136;3.502;2022-12-10T12:53:21;63.08;;;28.08;;
31798;SDS011;18374;51.136;3.502;2022-12-10T12:56:04;58.35;;;25.88;;
31798;SDS011;18374;51.136;3.502;2022-12-10T12:59:31;61.83;;;25.25;;
31798;SDS011;18374;51.136;3.502;2022-12-10T13:05:11;67.15;;;23.88;;
31798;SDS011;18374;51.136;3.502;2022-12-10T13:10:50;74.03;;;29.50;;
31798;SDS011;18374;51.136;3.502;2022-12-10T13:13:35;53.13;;;24.40;;
31798;SDS011;18374;51.136;3.502;2022-12-10T13:16:33;46.55;;;21.15;;
31798;SDS011;18374;51.136;3.502;2022-12-10T13:22:06;49.97;;;23.33;;
31798;SDS011;18374;51.136;3.502;2022-12-10T13:27:39;54.65;;;24.60;;
31798;SDS011;18374;51.136;3.502;2022-12-10T13:38:05;56.47;;;25.73;;
31798;SDS011;18374;51.136;3.502;2022-12-10T13:40:56;49.72;;;23.20;;
31798;SDS011;18374;51.136;3.502;2022-12-10T13:43:56;57.53;;;25.25;;
31798;SDS011;18374;51.136;3.502;2022-12-10T13:47:05;56.95;;;25.70;;
31798;SDS011;18374;51.136;3.502;2022-12-10T13:49:58;52.20;;;24.05;;
31798;SDS011;18374;51.136;3.502;2022-12-10T13:58:12;55.70;;;21.85;;
31798;SDS011;18374;51.136;3.502;2022-12-10T14:06:50;54.03;;;23.23;;
31798;SDS011;18374;51.136;3.502;2022-12-10T14:09:23;56.22;;;28.50;;
31798;SDS011;18374;51.136;3.502;2022-12-10T14:12:06;56.08;;;24.40;;
31798;SDS011;18374;51.136;3.502;2022-12-10T14:17:19;47.13;;;21.92;;
31798;SDS011;18374;51.136;3.502;2022-12-10T14:19:53;51.38;;;22.45;;
31798;SDS011;18374;51.136;3.502;2022-12-10T14:22:38;49.97;;;21.75;;
31798;SDS011;18374;51.136;3.502;2022-12-10T14:25:20;55.55;;;24.60;;
31798;SDS011;18374;51.136;3.502;2022-12-10T14:27:50;51.17;;;23.95;;
31798;SDS011;18374;51.136;3.502;2022-12-10T14:30:21;57.05;;;25.50;;
31798;SDS011;18374;51.136;3.502;2022-12-10T14:32:54;54.15;;;24.88;;
31798;SDS011;18374;51.136;3.502;2022-12-10T14:35:26;47.20;;;23.23;;
31798;SDS011;18374;51.136;3.502;2022-12-10T14:37:56;54.00;;;25.73;;
31798;SDS011;18374;51.136;3.502;2022-12-10T14:40:26;50.55;;;24.45;;
31798;SDS011;18374;51.136;3.502;2022-12-10T14:43:02;56.75;;;25.73;;
31798;SDS011;18374;51.136;3.502;2022-12-10T14:45:57;45.55;;;23.15;;
31798;SDS011;18374;51.136;3.502;2022-12-10T14:48:27;44.55;;;22.48;;
31798;SDS011;18374;51.136;3.502;2022-12-10T14:51:04;49.97;;;22.00;;
31798;SDS011;18374;51.136;3.502;2022-12-10T14:53:46;44.05;;;22.90;;
31798;SDS011;18374;51.136;3.502;2022-12-10T14:56:19;55.38;;;23.65;;
31798;SDS011;18374;51.136;3.502;2022-12-10T14:59:08;48.45;;;22.15;;
31798;SDS011;18374;51.136;3.502;2022-12-10T15:01:40;52.33;;;24.13;;
31798;SDS011;18374;51.136;3.502;2022-12-10T15:04:19;49.40;;;23.90;;
31798;SDS011;18374;51.136;3.502;2022-12-10T15:06:56;47.38;;;23.95;;
31798;SDS011;18374;51.136;3.502;2022-12-10T15:09:25;50.95;;;25.42;;
31798;SDS011;18374;51.136;3.502;2022-12-10T15:11:54;50.33;;;23.75;;
31798;SDS011;18374;51.136;3.502;2022-12-10T15:14:24;50.15;;;22.70;;
31798;SDS011;18374;51.136;3.502;2022-12-10T15:16:54;48.65;;;23.27;;
31798;SDS011;18374;51.136;3.502;2022-12-10T15:22:11;48.33;;;23.48;;
31798;SDS011;18374;51.136;3.502;2022-12-10T15:24:46;46.92;;;22.55;;
31798;SDS011;18374;51.136;3.502;2022-12-10T15:27:15;49.30;;;21.55;;
31798;SDS011;18374;51.136;3.502;2022-12-10T15:29:46;44.13;;;21.60;;
31798;SDS011;18374;51.136;3.502;2022-12-10T15:32:17;44.95;;;22.48;;
31798;SDS011;18374;51.136;3.502;2022-12-10T15:35:00;50.70;;;23.48;;
31798;SDS011;18374;51.136;3.502;2022-12-10T15:37:34;48.83;;;22.83;;
31798;SDS011;18374;51.136;3.502;2022-12-10T15:40:19;57.45;;;23.73;;
31798;SDS011;18374;51.136;3.502;2022-12-10T15:45:52;54.72;;;25.08;;
31798;SDS011;18374;51.136;3.502;2022-12-10T15:48:20;47.85;;;23.30;;
31798;SDS011;18374;51.136;3.502;2022-12-10T15:50:52;51.78;;;23.88;;
31798;SDS011;18374;51.136;3.502;2022-12-10T15:53:28;51.78;;;25.60;;
31798;SDS011;18374;51.136;3.502;2022-12-10T15:56:03;52.13;;;24.25;;
